Time;durP1;ratioP1;P1;durP2;ratioP2;P2;SDS_P1;SDS_P2;PMS_P1;PMS_P2;Temp;Humidity;BMP_temperature;BMP_pressure;BME280_temperature;BME280_humidity;BME280_pressure;Samples;Min_cycle;Max_cycle;Signal;HPM_P1;HPM_P2
2022/01/29 00:02:22;;;;;;;36.37;28.73;;;8.20;99.90;;;;;;4990885;28;20183;-80
2022/01/29 00:04:48;;;;;;;29.80;26.87;;;8.20;99.90;;;;;;5011572;28;20191;-78
2022/01/29 00:07:14;;;;;;;28.83;25.90;;;8.20;99.90;;;;;;4999835;28;20192;-80
2022/01/29 00:09:42;;;;;;;30.57;27.00;;;8.20;99.90;;;;;;5009659;28;20187;-78
2022/01/29 00:12:08;;;;;;;29.03;26.13;;;8.20;99.90;;;;;;4995099;28;20203;-79
2022/01/29 00:14:34;;;;;;;35.30;27.17;;;8.20;99.90;;;;;;4986293;28;20194;-79
2022/01/29 00:16:59;;;;;;;30.70;27.20;;;8.20;99.90;;;;;;5009765;28;20689;-78
2022/01/29 00:19:25;;;;;;;30.57;27.40;;;8.20;99.90;;;;;;5009753;28;20206;-78
2022/01/29 00:21:51;;;;;;;30.93;27.43;;;8.20;99.90;;;;;;4988245;28;20279;-79
2022/01/29 00:24:16;;;;;;;30.13;27.10;;;8.20;99.90;;;;;;4989311;28;20254;-79
2022/01/29 00:26:42;;;;;;;35.43;27.53;;;8.20;99.90;;;;;;5008485;28;20308;-79
2022/01/29 00:29:16;;;;;;;32.93;29.53;;;8.20;99.90;;;;;;4971478;28;20705;-78
2022/01/29 00:31:42;;;;;;;32.40;29.10;;;8.20;99.90;;;;;;4989303;28;20195;-78
2022/01/29 00:34:08;;;;;;;35.23;29.90;;;8.20;99.90;;;;;;5008289;28;20191;-79
2022/01/29 00:36:33;;;;;;;33.87;29.07;;;8.20;99.90;;;;;;4974255;28;20198;-79
2022/01/29 00:38:59;;;;;;;35.17;29.77;;;8.20;99.90;;;;;;4974267;28;20195;-79
2022/01/29 00:41:25;;;;;;;33.90;30.27;;;8.20;99.90;;;;;;4984645;28;20219;-79
2022/01/29 00:43:50;;;;;;;33.50;30.03;;;8.20;99.90;;;;;;4988532;28;20285;-80
2022/01/29 00:46:16;;;;;;;33.90;30.67;;;8.20;99.90;;;;;;4972303;28;20195;-78
2022/01/29 00:48:42;;;;;;;36.43;32.73;;;8.20;99.90;;;;;;4991529;28;20311;-78
2022/01/29 00:51:07;;;;;;;38.97;34.13;;;8.20;99.90;;;;;;4972255;28;20199;-79
2022/01/29 00:53:33;;;;;;;42.13;38.57;;;8.20;99.90;;;;;;5010004;28;20235;-79
2022/01/29 00:55:59;;;;;;;46.87;42.50;;;8.20;99.90;;;;;;5007476;28;20183;-80
2022/01/29 00:58:24;;;;;;;63.93;58.63;;;8.10;99.90;;;;;;5006616;28;20223;-79
2022/01/29 01:00:50;;;;;;;79.23;73.57;;;8.10;99.90;;;;;;4992101;28;20389;-79
2022/01/29 01:03:16;;;;;;;96.23;90.23;;;8.10;99.90;;;;;;5006045;28;20200;-79
2022/01/29 01:05:41;;;;;;;107.43;101.20;;;8.10;99.90;;;;;;4992332;28;20250;-79
2022/01/29 01:08:08;;;;;;;121.77;114.57;;;8.00;99.90;;;;;;4971987;28;20296;-80
2022/01/29 01:10:34;;;;;;;130.50;123.40;;;8.00;99.90;;;;;;4992100;28;20187;-80
2022/01/29 01:12:59;;;;;;;135.93;128.43;;;8.00;99.90;;;;;;5002149;28;20627;-78
2022/01/29 01:15:25;;;;;;;141.63;133.33;;;8.00;99.90;;;;;;5007395;28;20192;-78
2022/01/29 01:17:51;;;;;;;144.87;136.87;;;8.00;99.90;;;;;;4976022;28;20618;-80
2022/01/29 01:20:16;;;;;;;149.00;140.80;;;7.90;99.90;;;;;;4976135;28;20230;-79
2022/01/29 01:22:42;;;;;;;151.87;143.10;;;7.90;99.90;;;;;;4990441;28;20685;-79
2022/01/29 01:25:08;;;;;;;153.07;144.37;;;7.90;99.90;;;;;;5006497;28;20191;-79
2022/01/29 01:27:34;;;;;;;155.60;146.73;;;7.90;99.90;;;;;;4999416;28;20745;-79
2022/01/29 01:30:00;;;;;;;158.80;149.80;;;8.00;99.90;;;;;;4990948;28;20291;-79
2022/01/29 01:32:25;;;;;;;162.90;153.53;;;7.90;99.90;;;;;;5008629;28;20192;-79
2022/01/29 01:34:54;;;;;;;167.80;158.10;;;8.00;99.90;;;;;;5007510;28;20270;-79
2022/01/29 01:37:39;;;;;;;164.80;155.50;;;8.00;99.90;;;;;;4992638;28;20191;-78
2022/01/29 01:40:06;;;;;;;169.30;159.73;;;8.00;99.90;;;;;;5008945;28;20176;-78
2022/01/29 01:42:32;;;;;;;275.63;260.07;;;8.00;99.90;;;;;;4972499;28;20734;-79
2022/01/29 01:44:58;;;;;;;173.77;163.53;;;8.00;99.90;;;;;;4970089;28;20187;-79
2022/01/29 01:47:23;;;;;;;170.30;160.70;;;8.00;99.90;;;;;;4990939;28;20211;-79
2022/01/29 01:49:49;;;;;;;171.50;161.33;;;8.00;99.90;;;;;;4991235;28;20180;-79
2022/01/29 01:52:15;;;;;;;170.47;160.73;;;8.10;99.90;;;;;;4987252;28;20775;-80
2022/01/29 01:54:42;;;;;;;170.47;159.57;;;8.10;99.90;;;;;;4989223;28;20188;-79
2022/01/29 01:57:08;;;;;;;172.60;162.30;;;8.10;99.90;;;;;;5007277;28;20207;-80
2022/01/29 01:59:34;;;;;;;168.73;158.07;;;8.10;99.90;;;;;;4991983;28;20557;-78
2022/01/29 02:02:00;;;;;;;167.83;158.10;;;8.10;99.90;;;;;;4983699;28;20191;-78
2022/01/29 02:04:26;;;;;;;169.50;159.50;;;8.20;99.90;;;;;;4990772;28;20194;-79
2022/01/29 02:06:53;;;;;;;164.70;155.00;;;8.20;99.90;;;;;;4987951;28;20191;-78
2022/01/29 02:09:21;;;;;;;157.97;148.13;;;8.20;99.90;;;;;;5009012;28;20224;-79
2022/01/29 02:11:56;;;;;;;148.10;139.60;;;8.20;99.90;;;;;;4990321;28;20202;-79
2022/01/29 02:14:29;;;;;;;137.90;129.17;;;8.30;99.90;;;;;;5006835;28;20175;-79
2022/01/29 02:16:56;;;;;;;127.20;119.27;;;8.30;99.90;;;;;;4991039;28;20214;-79
2022/01/29 02:19:21;;;;;;;121.63;113.97;;;8.30;99.90;;;;;;5007441;28;20298;-79
2022/01/29 02:21:47;;;;;;;116.37;109.30;;;8.30;99.90;;;;;;5001172;28;20275;-79
2022/01/29 02:24:13;;;;;;;111.60;103.93;;;8.40;99.90;;;;;;4989482;28;20207;-79
2022/01/29 02:26:38;;;;;;;107.77;101.17;;;8.30;99.90;;;;;;5006376;28;20641;-79
2022/01/29 02:29:04;;;;;;;105.93;98.87;;;8.30;99.90;;;;;;5007126;28;20425;-78
2022/01/29 02:31:30;;;;;;;104.37;97.40;;;8.30;99.90;;;;;;4989655;28;20195;-79
2022/01/29 02:33:57;;;;;;;101.90;95.10;;;8.30;99.90;;;;;;5004548;28;20529;-80
2022/01/29 02:36:23;;;;;;;100.13;93.70;;;8.30;99.90;;;;;;4971397;28;20261;-79
2022/01/29 02:38:49;;;;;;;99.73;92.67;;;8.40;99.90;;;;;;4987131;28;20278;-78
2022/01/29 02:41:15;;;;;;;98.33;92.17;;;8.40;99.90;;;;;;5007976;28;20580;-79
2022/01/29 02:48:48;;;;;;;101.13;94.43;;;8.40;99.90;;;;;;5007141;28;20674;-79
2022/01/29 02:51:14;;;;;;;102.17;95.20;;;8.40;99.90;;;;;;5007351;28;20184;-79
2022/01/29 02:53:41;;;;;;;101.27;94.37;;;8.40;99.90;;;;;;5005956;28;20239;-78
2022/01/29 02:56:08;;;;;;;102.80;95.90;;;8.40;99.90;;;;;;5007036;28;20561;-80
2022/01/29 02:58:33;;;;;;;103.17;95.93;;;8.50;99.90;;;;;;4990212;28;20558;-78
2022/01/29 03:00:59;;;;;;;100.20;94.00;;;8.50;99.90;;;;;;5006944;28;20218;-78
2022/01/29 03:03:25;;;;;;;101.63;94.63;;;8.50;99.90;;;;;;5005191;28;20198;-78
2022/01/29 03:05:51;;;;;;;100.37;94.00;;;8.50;99.90;;;;;;5005828;28;20188;-78
2022/01/29 03:08:17;;;;;;;101.87;94.53;;;8.50;99.90;;;;;;4990469;28;20219;-79
2022/01/29 03:10:43;;;;;;;105.00;97.50;;;8.50;99.90;;;;;;5005987;28;20196;-80
2022/01/29 03:13:09;;;;;;;102.97;96.43;;;8.50;99.90;;;;;;5004639;28;20214;-79
2022/01/29 03:15:36;;;;;;;100.33;94.73;;;8.60;99.90;;;;;;5005680;28;20215;-79
2022/01/29 03:18:02;;;;;;;104.03;97.77;;;8.50;99.90;;;;;;4989592;28;20183;-80
2022/01/29 03:20:28;;;;;;;103.13;96.57;;;8.60;99.90;;;;;;5006645;28;20645;-78
2022/01/29 03:22:53;;;;;;;103.53;96.60;;;8.60;99.90;;;;;;5003533;28;20590;-78
2022/01/29 03:25:19;;;;;;;103.77;97.00;;;8.60;99.90;;;;;;4990375;28;20191;-78
2022/01/29 03:27:45;;;;;;;107.27;101.00;;;8.60;99.90;;;;;;4986104;28;20784;-79
2022/01/29 03:30:11;;;;;;;111.07;103.93;;;8.60;99.90;;;;;;4981221;28;20198;-79
2022/01/29 03:32:37;;;;;;;110.70;103.43;;;8.60;99.90;;;;;;4990791;28;20192;-78
2022/01/29 03:35:04;;;;;;;112.23;105.40;;;8.60;99.90;;;;;;5006423;28;20192;-79
2022/01/29 03:37:30;;;;;;;109.43;102.80;;;8.60;99.90;;;;;;5005193;28;20191;-80
2022/01/29 03:40:00;;;;;;;111.27;104.97;;;8.70;99.90;;;;;;5005461;28;20203;-79
2022/01/29 03:42:27;;;;;;;113.43;106.00;;;8.70;99.90;;;;;;5005492;28;20199;-78
2022/01/29 03:44:54;;;;;;;114.00;106.73;;;8.70;99.90;;;;;;5003805;28;20366;-80
2022/01/29 03:47:20;;;;;;;113.67;106.60;;;8.70;99.90;;;;;;4987522;28;20612;-79
2022/01/29 03:49:46;;;;;;;116.07;109.67;;;8.70;99.90;;;;;;5003098;28;20188;-80
2022/01/29 03:52:11;;;;;;;124.80;117.40;;;8.70;99.90;;;;;;4985873;28;20246;-79
2022/01/29 03:54:37;;;;;;;122.73;115.40;;;8.70;99.90;;;;;;5005882;28;20235;-79
2022/01/29 03:57:03;;;;;;;130.70;123.03;;;8.70;99.90;;;;;;4987392;28;20211;-79
2022/01/29 03:59:28;;;;;;;129.90;122.00;;;8.70;99.90;;;;;;4988587;28;20207;-79
2022/01/29 04:01:54;;;;;;;132.30;124.10;;;8.70;99.90;;;;;;4987438;28;20187;-79
2022/01/29 04:04:20;;;;;;;132.47;124.60;;;8.80;99.90;;;;;;5005282;28;20229;-79
2022/01/29 04:06:45;;;;;;;134.37;126.17;;;8.80;99.90;;;;;;4986871;28;20266;-79
2022/01/29 04:09:12;;;;;;;131.30;123.63;;;8.80;99.90;;;;;;4971512;28;20282;-80
2022/01/29 04:11:39;;;;;;;127.07;119.80;;;8.80;99.90;;;;;;5004529;28;20561;-79
2022/01/29 04:14:16;;;;;;;133.73;125.53;;;8.80;99.90;;;;;;4996152;28;20212;-78
2022/01/29 04:16:43;;;;;;;134.60;127.00;;;8.80;99.90;;;;;;5002715;28;20233;-79
2022/01/29 04:19:09;;;;;;;136.73;128.50;;;8.80;99.90;;;;;;5004097;28;20196;-79
2022/01/29 04:21:35;;;;;;;145.77;137.50;;;8.80;99.90;;;;;;5010897;28;20195;-80
2022/01/29 04:24:01;;;;;;;146.97;138.40;;;8.80;99.90;;;;;;4985512;28;20670;-78
2022/01/29 04:26:34;;;;;;;147.03;138.37;;;8.80;99.90;;;;;;5002629;28;20219;-79
2022/01/29 04:29:04;;;;;;;146.00;137.83;;;8.80;99.90;;;;;;4988741;28;20226;-77
2022/01/29 04:31:37;;;;;;;142.63;134.43;;;8.80;99.90;;;;;;5005747;28;20176;-80
2022/01/29 04:34:03;;;;;;;145.33;137.00;;;8.80;99.90;;;;;;4981669;28;20188;-79
2022/01/29 04:36:29;;;;;;;140.83;132.67;;;8.90;99.90;;;;;;4988178;28;20192;-80
2022/01/29 04:38:55;;;;;;;144.23;135.93;;;8.90;99.90;;;;;;4987330;28;20250;-80
2022/01/29 04:41:22;;;;;;;143.47;135.20;;;8.90;99.90;;;;;;5004073;28;20257;-78
2022/01/29 04:43:48;;;;;;;145.07;136.90;;;8.90;99.90;;;;;;4988317;28;20207;-78
2022/01/29 04:46:14;;;;;;;140.90;133.20;;;8.90;99.90;;;;;;5004326;28;20234;-79
2022/01/29 04:48:40;;;;;;;143.40;135.03;;;8.90;99.90;;;;;;4973099;28;20239;-76
2022/01/29 04:51:05;;;;;;;142.97;134.83;;;8.90;99.90;;;;;;4984561;28;20215;-80
2022/01/29 04:53:31;;;;;;;140.87;132.87;;;8.90;99.90;;;;;;5002581;28;20328;-79
2022/01/29 04:55:56;;;;;;;142.43;133.83;;;9.00;99.90;;;;;;5007549;28;20553;-78
2022/01/29 04:58:22;;;;;;;135.40;128.00;;;9.00;99.90;;;;;;5008126;28;20204;-80
2022/01/29 05:00:48;;;;;;;133.87;126.70;;;8.90;99.90;;;;;;4991748;28;20258;-79
2022/01/29 05:03:14;;;;;;;136.57;128.80;;;9.00;99.90;;;;;;5006916;28;20249;-80
2022/01/29 05:05:42;;;;;;;130.40;123.57;;;8.90;99.90;;;;;;4991582;28;20695;-79
2022/01/29 05:08:08;;;;;;;133.40;126.10;;;9.00;99.90;;;;;;5006902;28;20208;-79
2022/01/29 05:10:35;;;;;;;123.17;116.43;;;9.00;99.90;;;;;;5017031;28;20179;-80
2022/01/29 05:13:23;;;;;;;115.80;109.57;;;9.00;99.90;;;;;;4988679;28;20207;-79
2022/01/29 05:27:01;;;;;;;78.30;73.90;;;9.00;99.90;;;;;;4948530;28;20193;-79
2022/01/29 05:29:30;;;;;;;71.40;66.57;;;9.00;99.90;;;;;;4991878;28;20211;-79
2022/01/29 05:31:56;;;;;;;71.87;67.47;;;9.00;99.90;;;;;;4990922;28;20187;-79
2022/01/29 05:34:22;;;;;;;70.40;65.77;;;9.10;99.90;;;;;;5002780;28;20183;-79
2022/01/29 05:36:49;;;;;;;69.97;65.33;;;9.00;99.90;;;;;;5006185;28;20621;-79
2022/01/29 05:39:15;;;;;;;68.30;63.53;;;9.10;99.90;;;;;;4985541;28;20200;-80
2022/01/29 05:41:41;;;;;;;68.70;64.00;;;9.10;99.90;;;;;;4999574;28;20222;-79
2022/01/29 05:44:07;;;;;;;68.43;63.03;;;9.10;99.90;;;;;;5007688;28;20196;-80
2022/01/29 05:46:33;;;;;;;66.70;61.67;;;9.10;99.90;;;;;;4991374;28;20192;-80
2022/01/29 05:48:59;;;;;;;66.37;61.83;;;9.10;99.90;;;;;;4988919;28;20302;-79
2022/01/29 05:51:29;;;;;;;65.43;61.20;;;9.10;99.90;;;;;;5008868;28;20271;-79
2022/01/29 05:53:56;;;;;;;63.20;58.90;;;9.10;99.90;;;;;;4990835;28;20254;-79
2022/01/29 05:56:21;;;;;;;62.03;58.07;;;9.10;99.90;;;;;;4992679;28;20188;-79
2022/01/29 05:58:47;;;;;;;60.13;56.20;;;9.10;99.90;;;;;;4998996;28;20703;-79
2022/01/29 06:01:13;;;;;;;63.87;59.43;;;9.10;99.90;;;;;;5007947;28;20187;-78
2022/01/29 06:03:38;;;;;;;62.77;57.93;;;9.20;99.90;;;;;;4969518;28;20195;-79
2022/01/29 06:06:04;;;;;;;62.17;57.90;;;9.10;99.90;;;;;;5008235;28;20676;-79
2022/01/29 06:08:30;;;;;;;61.73;57.53;;;9.10;99.90;;;;;;4988097;28;20260;-79
2022/01/29 06:10:55;;;;;;;63.80;59.13;;;9.10;99.90;;;;;;4992109;28;20543;-79
2022/01/29 06:13:21;;;;;;;61.97;57.57;;;9.10;99.90;;;;;;5006358;28;20277;-79
2022/01/29 06:15:49;;;;;;;60.77;56.87;;;9.10;99.90;;;;;;5009366;28;20195;-79
2022/01/29 06:18:19;;;;;;;62.40;57.57;;;9.10;99.90;;;;;;5008031;28;20985;-80
2022/01/29 06:20:47;;;;;;;61.57;56.77;;;9.10;99.90;;;;;;5000454;28;20713;-79
2022/01/29 06:23:13;;;;;;;59.27;55.27;;;9.10;99.90;;;;;;5009362;28;20569;-79
2022/01/29 06:25:40;;;;;;;59.80;55.50;;;9.10;99.90;;;;;;5006979;28;20202;-80
2022/01/29 06:28:05;;;;;;;62.27;57.47;;;9.10;99.90;;;;;;4981298;28;20294;-79
2022/01/29 06:30:31;;;;;;;63.60;58.37;;;9.20;99.90;;;;;;5007990;28;20195;-81
2022/01/29 06:32:57;;;;;;;59.57;55.10;;;9.10;99.90;;;;;;5005669;28;20187;-80
2022/01/29 06:35:25;;;;;;;59.30;55.13;;;9.20;99.90;;;;;;5000960;28;20283;-81
2022/01/29 06:37:50;;;;;;;59.07;54.93;;;9.10;99.90;;;;;;4968689;28;20188;-81
2022/01/29 06:40:16;;;;;;;61.20;56.43;;;9.20;99.90;;;;;;5006040;28;20599;-80
2022/01/29 06:42:42;;;;;;;59.07;54.67;;;9.20;99.90;;;;;;5005384;28;20211;-79
2022/01/29 06:45:09;;;;;;;58.67;54.37;;;9.20;99.90;;;;;;4982870;28;20200;-78
2022/01/29 06:47:34;;;;;;;57.50;53.63;;;9.20;99.90;;;;;;4987163;28;20194;-79
2022/01/29 06:50:00;;;;;;;58.90;54.53;;;9.20;99.90;;;;;;4989106;28;20929;-79
2022/01/29 06:52:26;;;;;;;58.83;55.23;;;9.20;99.90;;;;;;5006706;28;20192;-80
2022/01/29 06:54:51;;;;;;;57.60;53.50;;;9.20;99.90;;;;;;4970721;28;20239;-79
2022/01/29 06:57:17;;;;;;;58.93;55.07;;;9.20;99.90;;;;;;4990564;28;20211;-79
2022/01/29 06:59:43;;;;;;;59.17;54.83;;;9.20;99.90;;;;;;5004737;28;20191;-79
2022/01/29 07:02:08;;;;;;;60.20;55.70;;;9.20;99.90;;;;;;4986467;28;20192;-78
2022/01/29 07:04:34;;;;;;;57.73;53.33;;;9.20;99.90;;;;;;5006393;28;20198;-80
2022/01/29 07:07:00;;;;;;;58.10;53.77;;;9.30;99.90;;;;;;4995255;28;20192;-78
2022/01/29 07:09:27;;;;;;;54.90;51.13;;;9.20;99.90;;;;;;4988254;28;20215;-80
2022/01/29 07:11:59;;;;;;;57.20;53.47;;;9.30;99.90;;;;;;4979236;28;20199;-80
2022/01/29 07:14:25;;;;;;;55.77;51.70;;;9.30;99.90;;;;;;5002552;28;20184;-78
2022/01/29 07:16:51;;;;;;;57.83;53.70;;;9.30;99.90;;;;;;5007611;28;20196;-79
2022/01/29 07:19:16;;;;;;;57.10;52.60;;;9.30;99.90;;;;;;4971250;28;20199;-79
2022/01/29 07:21:42;;;;;;;57.57;53.13;;;9.30;99.90;;;;;;5004847;28;20191;-81
2022/01/29 07:24:08;;;;;;;58.00;53.50;;;9.30;99.90;;;;;;4969703;28;20223;-81
2022/01/29 07:26:34;;;;;;;58.10;53.33;;;9.30;99.90;;;;;;4978794;28;20195;-80
2022/01/29 07:28:59;;;;;;;59.77;55.73;;;9.30;99.90;;;;;;5003875;28;22310;-80
2022/01/29 07:31:25;;;;;;;60.10;55.57;;;9.30;99.90;;;;;;5004040;28;20261;-80
2022/01/29 07:33:50;;;;;;;59.17;54.90;;;9.30;99.90;;;;;;4990022;28;20180;-79
2022/01/29 07:36:16;;;;;;;61.93;57.10;;;9.30;99.90;;;;;;5004663;28;20199;-79
2022/01/29 07:38:42;;;;;;;61.27;56.13;;;9.30;99.90;;;;;;4989642;28;20230;-79
2022/01/29 07:41:08;;;;;;;57.80;52.97;;;9.30;99.90;;;;;;4990525;28;20472;-78
2022/01/29 07:43:33;;;;;;;60.23;55.77;;;9.30;99.90;;;;;;4988016;28;20223;-80
2022/01/29 07:45:59;;;;;;;59.83;54.97;;;9.30;99.90;;;;;;4988199;28;20199;-80
2022/01/29 07:48:25;;;;;;;57.50;52.93;;;9.30;99.90;;;;;;5005651;28;20341;-80
2022/01/29 07:50:51;;;;;;;58.33;53.63;;;9.30;99.90;;;;;;4987594;28;20192;-79
2022/01/29 07:53:17;;;;;;;56.93;52.33;;;9.30;99.90;;;;;;4986556;28;20231;-80
2022/01/29 07:55:42;;;;;;;58.00;53.87;;;9.30;99.90;;;;;;4984044;28;20202;-80
2022/01/29 07:58:09;;;;;;;57.07;52.63;;;9.40;99.90;;;;;;5005582;28;20648;-80
2022/01/29 08:00:35;;;;;;;57.43;53.20;;;9.40;99.90;;;;;;5003653;28;20195;-78
2022/01/29 08:03:00;;;;;;;58.73;54.23;;;9.40;99.90;;;;;;5006974;28;20175;-80
2022/01/29 08:05:26;;;;;;;58.53;53.60;;;9.40;99.90;;;;;;4967732;28;20187;-81
2022/01/29 08:07:52;;;;;;;55.17;51.00;;;9.40;99.90;;;;;;5006612;28;20215;-79
2022/01/29 08:10:17;;;;;;;57.10;52.53;;;9.50;99.90;;;;;;5004302;28;20693;-79
2022/01/29 08:12:43;;;;;;;55.90;52.17;;;9.50;99.90;;;;;;5007369;28;20203;-80
2022/01/29 08:15:09;;;;;;;56.27;51.80;;;9.50;99.90;;;;;;4984374;28;20187;-79
2022/01/29 08:17:35;;;;;;;56.50;52.27;;;9.50;99.90;;;;;;5005963;28;20254;-79
2022/01/29 08:20:01;;;;;;;56.30;52.30;;;9.50;99.90;;;;;;5007142;28;20561;-79
2022/01/29 08:22:26;;;;;;;56.97;52.63;;;9.50;99.90;;;;;;5008059;28;20187;-79
2022/01/29 08:24:52;;;;;;;53.77;49.70;;;9.40;99.90;;;;;;5009450;28;20187;-79
2022/01/29 08:27:19;;;;;;;55.93;51.00;;;9.40;99.90;;;;;;4992663;28;20736;-81
2022/01/29 08:29:45;;;;;;;56.20;51.93;;;9.40;99.90;;;;;;4993822;28;20226;-80
2022/01/29 08:32:11;;;;;;;53.70;49.80;;;9.40;99.90;;;;;;5011333;28;20854;-81
2022/01/29 08:34:38;;;;;;;52.00;48.10;;;9.40;99.90;;;;;;4992590;28;20199;-79
2022/01/29 08:37:05;;;;;;;54.73;50.67;;;9.40;99.90;;;;;;4991017;28;20329;-80
2022/01/29 08:39:31;;;;;;;53.87;49.50;;;9.40;99.90;;;;;;5006068;28;20224;-80
2022/01/29 08:41:58;;;;;;;54.27;49.97;;;9.40;99.90;;;;;;4991655;28;20245;-80
2022/01/29 08:44:23;;;;;;;52.67;48.03;;;9.40;99.90;;;;;;4990221;28;20754;-79
2022/01/29 08:46:50;;;;;;;53.83;49.73;;;9.40;99.90;;;;;;4971776;28;20290;-80
2022/01/29 08:49:15;;;;;;;54.37;50.33;;;9.40;99.90;;;;;;5009256;28;20253;-78
2022/01/29 08:51:41;;;;;;;52.87;48.53;;;9.40;99.90;;;;;;4992377;28;20211;-80
2022/01/29 08:54:07;;;;;;;54.43;50.27;;;9.30;99.90;;;;;;4986921;28;20619;-80
2022/01/29 08:56:33;;;;;;;55.33;50.67;;;9.30;99.90;;;;;;5001613;28;20804;-80
2022/01/29 08:58:58;;;;;;;52.47;48.53;;;9.30;99.90;;;;;;4991287;28;20576;-80
2022/01/29 09:01:24;;;;;;;52.97;48.97;;;9.30;99.90;;;;;;5003550;28;20183;-79
2022/01/29 09:03:50;;;;;;;52.90;48.13;;;9.30;99.90;;;;;;4991125;28;20183;-80
2022/01/29 09:06:17;;;;;;;52.63;47.97;;;9.30;99.90;;;;;;5008689;28;20191;-81
2022/01/29 09:08:48;;;;;;;51.87;47.77;;;9.30;99.90;;;;;;5001477;28;20654;-80
2022/01/29 09:11:15;;;;;;;52.80;47.97;;;9.30;99.90;;;;;;4994335;28;20275;-80
2022/01/29 09:13:41;;;;;;;51.03;47.10;;;9.40;99.90;;;;;;5008541;28;20293;-79
2022/01/29 09:16:07;;;;;;;51.97;47.27;;;9.50;99.90;;;;;;5007696;28;20291;-79
2022/01/29 09:18:34;;;;;;;50.73;46.73;;;9.60;99.90;;;;;;5006800;28;20195;-80
2022/01/29 09:21:00;;;;;;;48.17;44.53;;;9.70;99.90;;;;;;4987175;28;20192;-79
2022/01/29 09:23:26;;;;;;;48.03;44.23;;;9.70;99.90;;;;;;5008548;28;20198;-80
2022/01/29 09:25:52;;;;;;;47.67;43.93;;;9.70;99.90;;;;;;4992101;28;20570;-80
2022/01/29 09:28:18;;;;;;;47.27;43.63;;;9.80;99.90;;;;;;4991269;28;20306;-79
2022/01/29 09:30:45;;;;;;;45.07;42.03;;;9.90;99.90;;;;;;4986526;28;20270;-80
2022/01/29 09:33:11;;;;;;;47.83;43.77;;;10.00;99.90;;;;;;5005431;28;20642;-80
2022/01/29 09:35:40;;;;;;;44.43;40.83;;;10.10;99.90;;;;;;5007879;28;20184;-80
2022/01/29 09:38:07;;;;;;;41.60;38.33;;;10.20;99.90;;;;;;5009868;28;20198;-80
2022/01/29 09:40:33;;;;;;;41.77;38.77;;;10.20;99.90;;;;;;5006679;28;20234;-80
2022/01/29 09:43:01;;;;;;;42.87;39.23;;;10.30;99.90;;;;;;4990892;28;20295;-80
2022/01/29 09:45:28;;;;;;;41.03;37.43;;;10.30;99.90;;;;;;4983265;28;20202;-79
2022/01/29 09:48:01;;;;;;;39.80;37.07;;;10.30;99.90;;;;;;4990867;28;20573;-81
2022/01/29 09:50:31;;;;;;;40.53;36.93;;;10.30;99.90;;;;;;4992838;28;20250;-80
2022/01/29 09:52:59;;;;;;;37.90;35.13;;;10.40;99.90;;;;;;4990739;28;20188;-79
2022/01/29 09:55:26;;;;;;;36.00;33.10;;;10.40;99.90;;;;;;5007717;28;20192;-81
2022/01/29 09:57:52;;;;;;;37.77;34.63;;;10.40;99.90;;;;;;5005264;28;20593;-79
2022/01/29 10:00:19;;;;;;;35.90;32.97;;;10.50;99.90;;;;;;4990083;28;20192;-79
2022/01/29 10:02:44;;;;;;;33.90;31.47;;;10.60;99.90;;;;;;5005993;28;20210;-79
2022/01/29 10:05:12;;;;;;;33.43;30.67;;;10.70;99.90;;;;;;5006327;28;20257;-80
2022/01/29 10:07:38;;;;;;;32.47;29.50;;;10.70;99.90;;;;;;5006520;28;20249;-78
2022/01/29 10:10:18;;;;;;;26.23;22.83;;;10.80;99.90;;;;;;5009726;28;20188;-80
2022/01/29 10:12:44;;;;;;;22.17;15.43;;;11.40;99.90;;;;;;5008095;28;20592;-80
2022/01/29 10:15:10;;;;;;;15.20;11.90;;;12.70;99.90;;;;;;4986100;28;20255;-80
2022/01/29 10:17:56;;;;;;;15.20;11.63;;;14.10;99.90;;;;;;5007923;28;20218;-79
2022/01/29 10:20:29;;;;;;;16.27;14.70;;;14.80;99.90;;;;;;5007805;28;20216;-81
2022/01/29 10:22:55;;;;;;;20.30;14.73;;;14.20;99.90;;;;;;5007278;28;20644;-79
2022/01/29 10:25:27;;;;;;;21.00;13.40;;;13.20;99.90;;;;;;5007440;28;20277;-80
2022/01/29 10:28:07;;;;;;;19.80;12.80;;;12.50;99.90;;;;;;5007914;28;20214;-80
2022/01/29 10:30:47;;;;;;;22.80;12.83;;;12.10;99.90;;;;;;5007902;28;20186;-79
2022/01/29 10:33:20;;;;;;;14.37;11.60;;;11.90;99.90;;;;;;5008214;28;21039;-81
2022/01/29 10:36:15;;;;;;;12.67;11.27;;;11.70;99.90;;;;;;5009656;28;20186;-80
2022/01/29 10:38:40;;;;;;;15.47;11.40;;;11.50;99.90;;;;;;5007750;28;20264;-80
2022/01/29 10:41:12;;;;;;;18.33;12.30;;;11.40;99.90;;;;;;5010511;28;20704;-80
2022/01/29 10:44:19;;;;;;;15.97;10.63;;;11.40;99.90;;;;;;5008245;28;20305;-81
2022/01/29 10:46:46;;;;;;;17.87;12.33;;;11.40;99.90;;;;;;4949060;28;20193;-78
2022/01/29 10:49:21;;;;;;;21.73;11.77;;;11.30;99.90;;;;;;5000677;28;20221;-80
2022/01/29 10:52:02;;;;;;;12.53;11.40;;;11.30;99.90;;;;;;5010004;28;20184;-80
2022/01/29 10:54:30;;;;;;;14.73;11.57;;;11.20;99.90;;;;;;5001064;28;20228;-80
2022/01/29 10:57:16;;;;;;;14.17;10.67;;;11.30;99.90;;;;;;5016314;28;20189;-81
2022/01/29 10:59:53;;;;;;;20.20;11.30;;;11.30;99.90;;;;;;5008869;28;20287;-81
2022/01/29 11:02:22;;;;;;;16.20;11.30;;;11.30;99.90;;;;;;5001134;28;20208;-79
2022/01/29 11:04:49;;;;;;;17.23;11.13;;;11.20;99.90;;;;;;5006359;28;20196;-80
2022/01/29 11:07:23;;;;;;;13.23;12.03;;;11.10;99.90;;;;;;4990327;28;20202;-80
2022/01/29 11:09:50;;;;;;;21.20;12.53;;;11.00;99.90;;;;;;5005688;28;20199;-80
2022/01/29 11:12:21;;;;;;;15.33;12.27;;;11.00;99.90;;;;;;4971220;28;20208;-80
2022/01/29 11:14:49;;;;;;;13.57;11.80;;;10.90;99.90;;;;;;5006832;28;20187;-80
2022/01/29 11:17:18;;;;;;;16.13;12.13;;;11.00;99.90;;;;;;5004790;28;20209;-80
2022/01/29 11:19:44;;;;;;;13.77;12.47;;;11.00;99.90;;;;;;5005776;28;20216;-79
2022/01/29 11:22:12;;;;;;;18.13;12.47;;;11.00;99.90;;;;;;5004862;28;20185;-79
2022/01/29 11:24:40;;;;;;;20.97;12.90;;;11.00;99.90;;;;;;5005739;28;20291;-79
2022/01/29 11:27:19;;;;;;;17.90;12.70;;;11.10;99.90;;;;;;5006600;28;20204;-80
2022/01/29 11:30:05;;;;;;;16.60;11.27;;;11.10;99.90;;;;;;4980403;28;20212;-80
2022/01/29 11:32:38;;;;;;;14.33;12.07;;;11.20;99.90;;;;;;4988746;28;20667;-80
2022/01/29 11:35:04;;;;;;;16.57;12.40;;;11.20;99.90;;;;;;5005632;28;20210;-80
2022/01/29 11:37:50;;;;;;;15.27;12.20;;;11.20;99.90;;;;;;5005822;28;20666;-80
2022/01/29 11:40:25;;;;;;;14.73;13.20;;;11.20;99.90;;;;;;4984643;28;20211;-80
2022/01/29 11:43:21;;;;;;;18.07;13.37;;;11.20;99.90;;;;;;5006324;28;20313;-80
2022/01/29 11:46:25;;;;;;;19.17;12.70;;;11.20;99.90;;;;;;5006171;28;20725;-80
2022/01/29 11:48:53;;;;;;;18.47;12.87;;;11.10;99.90;;;;;;5004973;28;20211;-80
2022/01/29 11:51:40;;;;;;;13.53;12.17;;;11.10;99.90;;;;;;4984217;28;20202;-82
2022/01/29 11:54:08;;;;;;;22.30;12.13;;;11.10;99.90;;;;;;5002837;28;20223;-80
2022/01/29 11:56:38;;;;;;;17.80;11.83;;;11.10;99.90;;;;;;5012593;28;20681;-80
2022/01/29 11:59:19;;;;;;;18.30;12.37;;;11.10;99.90;;;;;;5014150;28;20234;-82
2022/01/29 12:01:45;;;;;;;18.13;12.23;;;11.20;99.90;;;;;;5014141;28;20207;-82
2022/01/29 12:04:11;;;;;;;18.67;11.50;;;11.10;99.90;;;;;;5001649;28;20192;-81
2022/01/29 12:06:57;;;;;;;19.00;11.97;;;11.20;99.90;;;;;;4992185;28;20200;-79
2022/01/29 12:09:25;;;;;;;14.10;11.00;;;11.20;99.90;;;;;;5021449;28;20227;-79
2022/01/29 12:12:14;;;;;;;12.73;11.00;;;11.20;99.90;;;;;;5008691;28;20561;-78
2022/01/29 12:14:40;;;;;;;15.33;10.93;;;11.30;99.90;;;;;;5008776;28;20187;-81
2022/01/29 12:17:08;;;;;;;18.50;10.90;;;11.30;99.90;;;;;;4993705;28;20196;-79
2022/01/29 12:19:40;;;;;;;11.50;10.23;;;11.30;99.90;;;;;;5008820;28;20510;-80
2022/01/29 12:22:21;;;;;;;19.67;9.53;;;11.40;99.90;;;;;;5009943;28;20674;-82
2022/01/29 12:24:59;;;;;;;14.03;9.70;;;11.40;99.90;;;;;;5009481;28;20889;-81
2022/01/29 12:27:45;;;;;;;15.03;10.20;;;11.50;99.90;;;;;;4992474;28;20701;-81
2022/01/29 12:30:13;;;;;;;14.37;10.23;;;11.50;99.90;;;;;;5003131;28;20630;-79
2022/01/29 12:32:39;;;;;;;17.40;10.27;;;11.40;99.90;;;;;;5010534;28;20212;-81
2022/01/29 12:35:05;;;;;;;14.20;9.97;;;11.40;99.90;;;;;;5008737;28;20219;-82
2022/01/29 12:37:31;;;;;;;21.23;9.80;;;11.40;99.90;;;;;;5010174;28;20660;-82
2022/01/29 12:40:20;;;;;;;12.87;9.57;;;11.30;99.90;;;;;;4973868;28;20203;-80
2022/01/29 12:42:55;;;;;;;11.97;10.33;;;11.30;99.90;;;;;;5009496;28;20213;-82
2022/01/29 12:45:22;;;;;;;14.53;10.20;;;11.30;99.90;;;;;;5012169;28;20513;-82
2022/01/29 12:47:48;;;;;;;16.90;9.80;;;11.30;99.90;;;;;;5009697;28;20214;-80
2022/01/29 12:50:22;;;;;;;12.57;9.47;;;11.30;99.90;;;;;;4994552;28;20188;-83